Time;durP1;ratioP1;P1;durP2;ratioP2;P2;SDS_P1;SDS_P2;PMS_P1;PMS_P2;Temp;Humidity;BMP_temperature;BMP_pressure;BME280_temperature;BME280_humidity;BME280_pressure;Samples;Min_cycle;Max_cycle;Signal;HPM_P1;HPM_P2
2022/08/16 00:00:09;;;;;;;;;;;24.70;65.90;;;;;;4948044;28;19957;-66
2022/08/16 00:02:35;;;;;;;;;;;24.70;65.10;;;;;;4963690;28;19961;-66
2022/08/16 00:05:01;;;;;;;;;;;24.70;64.70;;;;;;4964806;28;20356;-66
2022/08/16 00:07:27;;;;;;;;;;;24.80;64.70;;;;;;4970779;28;19917;-66
2022/08/16 00:09:53;;;;;;;;;;;24.70;63.70;;;;;;4936781;29;19922;-66
2022/08/16 00:12:19;;;;;;;;;;;24.80;62.80;;;;;;4950559;29;20283;-66
2022/08/16 00:14:44;;;;;;;;;;;24.90;61.80;;;;;;4946335;29;19918;-66
2022/08/16 00:17:10;;;;;;;;;;;24.90;62.80;;;;;;4953122;29;19911;-67
2022/08/16 00:19:35;;;;;;;;;;;24.90;62.30;;;;;;4954795;29;19921;-65
2022/08/16 00:22:01;;;;;;;;;;;24.90;61.60;;;;;;4946093;29;19921;-65
2022/08/16 00:24:27;;;;;;;;;;;24.80;62.10;;;;;;4943622;29;19919;-67
2022/08/16 00:26:52;;;;;;;;;;;24.80;62.10;;;;;;4950781;29;20099;-66
2022/08/16 00:29:18;;;;;;;;;;;24.70;63.10;;;;;;4933634;29;19914;-67
2022/08/16 00:31:46;;;;;;;;;;;24.60;62.90;;;;;;4943424;29;19910;-66
2022/08/16 00:34:11;;;;;;;;;;;24.70;62.30;;;;;;4946760;29;19918;-67
2022/08/16 00:36:37;;;;;;;;;;;24.80;62.40;;;;;;4939941;29;20267;-67
2022/08/16 00:39:03;;;;;;;;;;;24.80;61.90;;;;;;4948509;29;20010;-66
2022/08/16 00:41:29;;;;;;;;;;;24.90;62.20;;;;;;4950922;29;19914;-67
2022/08/16 00:43:55;;;;;;;;;;;25.00;62.00;;;;;;4944031;29;19927;-65
2022/08/16 00:46:24;;;;;;;;;;;25.10;61.70;;;;;;4944369;29;20363;-66
2022/08/16 00:48:50;;;;;;;;;;;25.10;62.00;;;;;;4950913;29;19911;-66
2022/08/16 00:51:16;;;;;;;;;;;25.10;61.70;;;;;;4948090;29;19918;-66
2022/08/16 00:53:42;;;;;;;;;;;25.20;61.40;;;;;;4941543;29;19914;-65
2022/08/16 00:56:13;;;;;;;;;;;25.20;61.60;;;;;;4946286;29;20260;-66
2022/08/16 00:58:41;;;;;;;;;;;25.20;61.50;;;;;;4936908;29;20306;-66
2022/08/16 01:01:07;;;;;;;;;;;25.30;60.90;;;;;;4945213;29;19910;-65
2022/08/16 01:03:34;;;;;;;;;;;25.30;60.90;;;;;;4942600;29;19919;-66
2022/08/16 01:05:59;;;;;;;;;;;25.30;61.00;;;;;;4950054;29;19911;-66
2022/08/16 01:08:26;;;;;;;;;;;25.30;60.90;;;;;;4949280;29;20404;-66
2022/08/16 01:10:51;;;;;;;;;;;25.30;61.00;;;;;;4958017;28;20382;-66
2022/08/16 01:13:19;;;;;;;;;;;25.30;61.30;;;;;;4964968;28;19915;-66
2022/08/16 01:15:47;;;;;;;;;;;25.30;61.70;;;;;;4952236;28;19919;-67
2022/08/16 01:18:16;;;;;;;;;;;25.30;61.90;;;;;;4960957;28;20000;-68
2022/08/16 01:20:47;;;;;;;;;;;25.30;62.40;;;;;;4964089;28;19994;-67
2022/08/16 01:23:15;;;;;;;;;;;25.40;62.20;;;;;;4969392;28;19923;-66
2022/08/16 01:25:43;;;;;;;;;;;25.30;65.20;;;;;;4966144;28;20369;-65
2022/08/16 01:28:11;;;;;;;;;;;25.30;65.80;;;;;;4938586;28;19980;-68
2022/08/16 01:30:38;;;;;;;;;;;25.30;66.60;;;;;;4966112;28;20366;-66
2022/08/16 01:33:05;;;;;;;;;;;25.00;67.20;;;;;;4969328;28;19917;-66
2022/08/16 01:35:49;;;;;;;;;;;24.80;68.80;;;;;;4963055;28;19910;-67
2022/08/16 01:38:17;;;;;;;;;;;24.80;68.80;;;;;;4961293;28;19933;-67
2022/08/16 01:40:43;;;;;;;;;;;24.60;70.50;;;;;;4949385;29;19917;-67
2022/08/16 01:43:08;;;;;;;;;;;24.50;74.30;;;;;;4968951;28;19922;-66
2022/08/16 01:45:34;;;;;;;;;;;24.30;75.40;;;;;;4961727;28;20325;-68
2022/08/16 01:47:59;;;;;;;;;;;24.10;79.20;;;;;;4962920;28;20286;-66
2022/08/16 01:50:25;;;;;;;;;;;24.00;79.80;;;;;;4969094;28;19910;-67
2022/08/16 01:52:50;;;;;;;;;;;23.90;80.50;;;;;;4948405;28;19914;-65
2022/08/16 01:55:17;;;;;;;;;;;24.00;79.90;;;;;;4961135;28;20022;-67
2022/08/16 01:57:43;;;;;;;;;;;24.00;81.10;;;;;;4966445;28;20367;-66
2022/08/16 02:00:10;;;;;;;;;;;24.00;81.30;;;;;;4956355;28;19921;-67
2022/08/16 02:02:36;;;;;;;;;;;23.90;81.60;;;;;;4961534;28;19917;-67
2022/08/16 02:05:02;;;;;;;;;;;23.50;83.10;;;;;;4962245;28;19926;-66
2022/08/16 02:07:27;;;;;;;;;;;23.60;83.20;;;;;;4968454;28;19977;-67
2022/08/16 02:09:53;;;;;;;;;;;23.80;82.10;;;;;;4965212;28;19929;-62
2022/08/16 02:12:19;;;;;;;;;;;23.90;81.30;;;;;;4960728;28;20421;-65
2022/08/16 02:14:44;;;;;;;;;;;23.70;81.90;;;;;;4965905;28;19914;-62
2022/08/16 02:17:11;;;;;;;;;;;23.50;83.00;;;;;;4958944;28;19960;-69
2022/08/16 02:19:37;;;;;;;;;;;23.50;82.30;;;;;;4968455;28;19910;-64
2022/08/16 02:22:03;;;;;;;;;;;23.20;82.40;;;;;;4963400;28;19959;-68
2022/08/16 02:24:29;;;;;;;;;;;23.10;83.20;;;;;;4959462;28;19931;-66
2022/08/16 02:26:55;;;;;;;;;;;22.90;83.50;;;;;;4968110;28;19953;-66
2022/08/16 02:29:21;;;;;;;;;;;22.90;84.30;;;;;;4954893;28;19950;-66
2022/08/16 02:31:47;;;;;;;;;;;22.80;84.60;;;;;;4960361;28;20016;-69
2022/08/16 02:34:13;;;;;;;;;;;22.60;85.00;;;;;;4963516;28;19915;-69
2022/08/16 02:36:40;;;;;;;;;;;22.50;86.40;;;;;;4968133;28;19958;-65
2022/08/16 02:39:06;;;;;;;;;;;22.60;85.10;;;;;;4963361;28;19910;-68
2022/08/16 02:41:32;;;;;;;;;;;22.40;85.40;;;;;;4960082;28;19929;-68
2022/08/16 02:43:58;;;;;;;;;;;22.40;85.90;;;;;;4966852;28;19925;-69
2022/08/16 02:46:24;;;;;;;;;;;22.30;84.80;;;;;;4967375;28;19953;-69
2022/08/16 02:48:50;;;;;;;;;;;22.20;85.60;;;;;;4960145;28;20377;-70
2022/08/16 02:51:15;;;;;;;;;;;22.20;86.20;;;;;;4962695;28;19914;-70
2022/08/16 02:53:43;;;;;;;;;;;22.30;84.70;;;;;;4950522;28;20001;-67
2022/08/16 02:56:09;;;;;;;;;;;22.10;82.90;;;;;;4963161;28;20022;-69
2022/08/16 02:58:35;;;;;;;;;;;22.10;85.80;;;;;;4948542;28;19929;-65
2022/08/16 03:01:01;;;;;;;;;;;22.10;85.30;;;;;;4966180;28;19917;-68
2022/08/16 03:03:27;;;;;;;;;;;22.00;86.00;;;;;;4967233;28;19918;-74
2022/08/16 03:05:53;;;;;;;;;;;22.00;86.80;;;;;;4959756;28;19942;-67
2022/08/16 03:08:20;;;;;;;;;;;21.90;85.50;;;;;;4962201;28;20319;-70
2022/08/16 03:10:48;;;;;;;;;;;21.90;84.30;;;;;;4967308;28;19961;-71
2022/08/16 03:13:15;;;;;;;;;;;21.90;83.80;;;;;;4964024;28;19910;-68
2022/08/16 03:15:41;;;;;;;;;;;21.90;83.10;;;;;;4959725;28;19961;-71
2022/08/16 03:18:06;;;;;;;;;;;21.80;81.80;;;;;;4959505;28;19914;-67
2022/08/16 03:20:32;;;;;;;;;;;21.90;81.90;;;;;;4963417;28;19925;-66
2022/08/16 03:22:58;;;;;;;;;;;22.00;81.60;;;;;;4967461;28;19910;-70
2022/08/16 03:25:23;;;;;;;;;;;21.90;82.40;;;;;;4961931;28;19970;-67
2022/08/16 03:27:50;;;;;;;;;;;21.80;82.60;;;;;;4949949;28;19966;-67
2022/08/16 03:30:17;;;;;;;;;;;21.70;83.10;;;;;;4960029;28;19911;-70
2022/08/16 03:32:44;;;;;;;;;;;21.80;83.00;;;;;;4961110;28;19921;-68
2022/08/16 03:35:09;;;;;;;;;;;21.60;83.10;;;;;;4969319;28;19914;-69
2022/08/16 03:37:35;;;;;;;;;;;21.60;83.10;;;;;;4968009;28;19917;-65
2022/08/16 03:40:02;;;;;;;;;;;21.50;83.10;;;;;;4963589;28;19911;-71
2022/08/16 03:42:27;;;;;;;;;;;21.30;83.10;;;;;;4968649;28;19916;-70
2022/08/16 03:44:53;;;;;;;;;;;21.30;82.90;;;;;;4971741;28;19918;-68
2022/08/16 03:47:19;;;;;;;;;;;21.30;82.50;;;;;;4970559;28;19961;-70
2022/08/16 03:49:46;;;;;;;;;;;21.30;82.70;;;;;;4970028;28;19911;-68
2022/08/16 03:52:12;;;;;;;;;;;21.20;82.20;;;;;;4963298;28;19911;-68
2022/08/16 03:54:37;;;;;;;;;;;21.20;82.50;;;;;;4966119;28;20057;-64
2022/08/16 03:57:03;;;;;;;;;;;21.10;82.20;;;;;;4970972;28;20231;-62
2022/08/16 03:59:30;;;;;;;;;;;21.00;83.30;;;;;;4956004;28;19914;-61
2022/08/16 04:01:56;;;;;;;;;;;21.00;82.80;;;;;;4963030;28;19914;-63
2022/08/16 04:04:22;;;;;;;;;;;20.90;83.80;;;;;;4969645;28;19926;-62
2022/08/16 04:06:47;;;;;;;;;;;20.90;83.70;;;;;;4970081;28;19917;-62
2022/08/16 04:09:13;;;;;;;;;;;21.00;82.80;;;;;;4962666;28;19981;-63
2022/08/16 04:11:38;;;;;;;;;;;21.10;83.30;;;;;;4976641;28;19925;-60
2022/08/16 04:14:04;;;;;;;;;;;21.10;81.50;;;;;;4962894;28;19954;-62
2022/08/16 04:16:31;;;;;;;;;;;21.20;81.00;;;;;;4967940;28;19911;-62
2022/08/16 04:18:56;;;;;;;;;;;21.10;81.40;;;;;;4967932;28;20255;-61
2022/08/16 04:21:22;;;;;;;;;;;21.20;81.80;;;;;;4962724;28;19925;-61
2022/08/16 04:23:47;;;;;;;;;;;21.30;79.10;;;;;;4967409;28;20250;-61
2022/08/16 04:26:13;;;;;;;;;;;21.40;79.30;;;;;;4970445;28;20001;-63
2022/08/16 04:28:39;;;;;;;;;;;21.50;78.70;;;;;;4953069;28;19950;-63
2022/08/16 04:31:05;;;;;;;;;;;21.50;78.10;;;;;;4963515;28;20022;-61
2022/08/16 04:33:30;;;;;;;;;;;21.50;77.50;;;;;;4970415;28;19910;-64
2022/08/16 04:35:57;;;;;;;;;;;21.60;78.20;;;;;;4967594;28;19921;-66
2022/08/16 04:38:22;;;;;;;;;;;21.60;78.30;;;;;;4962352;28;19922;-62
2022/08/16 04:40:48;;;;;;;;;;;21.50;77.90;;;;;;4967264;28;20350;-63
2022/08/16 04:43:14;;;;;;;;;;;21.50;78.30;;;;;;4970250;28;20416;-62
2022/08/16 04:45:40;;;;;;;;;;;21.40;79.20;;;;;;4962973;28;19914;-66
2022/08/16 04:48:05;;;;;;;;;;;21.20;79.90;;;;;;4962569;28;19930;-63
2022/08/16 04:50:31;;;;;;;;;;;21.30;79.60;;;;;;4970117;28;19910;-62
2022/08/16 04:52:57;;;;;;;;;;;21.50;81.00;;;;;;4967163;28;19910;-61
2022/08/16 04:55:24;;;;;;;;;;;21.50;78.80;;;;;;4944841;28;19917;-63
2022/08/16 04:57:51;;;;;;;;;;;21.50;78.80;;;;;;4951538;28;19917;-61
2022/08/16 05:00:19;;;;;;;;;;;21.50;80.10;;;;;;4969935;28;20365;-64
2022/08/16 05:02:47;;;;;;;;;;;21.40;83.20;;;;;;4963911;28;19914;-62
2022/08/16 05:05:13;;;;;;;;;;;21.00;85.10;;;;;;4961931;28;19922;-68
2022/08/16 05:07:39;;;;;;;;;;;20.90;86.40;;;;;;4969512;28;19943;-62
2022/08/16 05:10:06;;;;;;;;;;;21.10;86.60;;;;;;4968008;28;19922;-61
2022/08/16 05:12:32;;;;;;;;;;;21.30;86.80;;;;;;4961757;28;19910;-62
2022/08/16 05:14:57;;;;;;;;;;;21.50;83.40;;;;;;4975512;28;19917;-61
2022/08/16 05:17:23;;;;;;;;;;;21.70;82.90;;;;;;4959294;28;19919;-62
2022/08/16 05:19:48;;;;;;;;;;;21.70;82.80;;;;;;4969590;28;19938;-65
2022/08/16 05:22:14;;;;;;;;;;;21.80;82.60;;;;;;4965980;28;19920;-61
2022/08/16 05:24:40;;;;;;;;;;;22.00;83.60;;;;;;4961554;28;19928;-64
2022/08/16 05:27:06;;;;;;;;;;;22.00;84.60;;;;;;4967510;28;19911;-61
2022/08/16 05:29:32;;;;;;;;;;;22.00;84.20;;;;;;4956823;28;19910;-63
2022/08/16 05:31:57;;;;;;;;;;;22.00;83.00;;;;;;4955972;28;19910;-62
2022/08/16 05:34:23;;;;;;;;;;;22.20;83.40;;;;;;4967673;28;19921;-62
2022/08/16 05:36:49;;;;;;;;;;;22.10;82.90;;;;;;4961453;28;19910;-61
2022/08/16 05:39:15;;;;;;;;;;;22.10;82.80;;;;;;4948049;29;19917;-61
2022/08/16 05:41:41;;;;;;;;;;;22.10;84.00;;;;;;4969464;28;19933;-63
2022/08/16 05:44:06;;;;;;;;;;;22.10;84.00;;;;;;4963774;28;19980;-62
2022/08/16 05:46:32;;;;;;;;;;;22.20;84.10;;;;;;4961889;28;19915;-63
2022/08/16 05:48:58;;;;;;;;;;;22.20;83.20;;;;;;4969044;28;19915;-60
2022/08/16 05:51:24;;;;;;;;;;;22.20;83.40;;;;;;4967510;28;19921;-62
2022/08/16 05:53:50;;;;;;;;;;;22.20;82.00;;;;;;4961275;28;19914;-61
2022/08/16 05:56:15;;;;;;;;;;;22.30;82.60;;;;;;4965098;28;19946;-62
2022/08/16 05:58:41;;;;;;;;;;;22.40;82.10;;;;;;4960142;28;19918;-61
2022/08/16 06:01:07;;;;;;;;;;;22.50;81.10;;;;;;4963620;28;20004;-65
2022/08/16 06:03:32;;;;;;;;;;;22.50;81.50;;;;;;4960992;28;20359;-70
2022/08/16 06:05:58;;;;;;;;;;;22.50;81.10;;;;;;4968495;28;19918;-63
2022/08/16 06:08:24;;;;;;;;;;;22.50;80.80;;;;;;4967293;28;20001;-61
2022/08/16 06:10:49;;;;;;;;;;;22.60;81.30;;;;;;4960757;28;19932;-60
2022/08/16 06:13:15;;;;;;;;;;;22.60;81.50;;;;;;4964651;28;20281;-62
2022/08/16 06:15:40;;;;;;;;;;;22.70;81.50;;;;;;4951304;28;19954;-61
2022/08/16 06:18:06;;;;;;;;;;;22.70;81.60;;;;;;4959114;28;19969;-61
2022/08/16 06:20:31;;;;;;;;;;;22.80;81.10;;;;;;4964314;28;20369;-65
2022/08/16 06:22:57;;;;;;;;;;;22.80;79.30;;;;;;4968363;28;19914;-61
2022/08/16 06:25:24;;;;;;;;;;;23.00;80.60;;;;;;4962596;28;19914;-66
2022/08/16 06:27:50;;;;;;;;;;;23.10;79.70;;;;;;4950531;28;19937;-63
2022/08/16 06:30:16;;;;;;;;;;;23.10;75.60;;;;;;4967951;28;19911;-67
2022/08/16 06:32:42;;;;;;;;;;;23.10;74.10;;;;;;4966757;28;19960;-64
2022/08/16 06:35:07;;;;;;;;;;;23.20;72.00;;;;;;4960383;28;20263;-72
2022/08/16 06:37:33;;;;;;;;;;;23.20;73.00;;;;;;4963924;28;19914;-60
2022/08/16 06:39:59;;;;;;;;;;;23.10;72.30;;;;;;4968157;28;19910;-62
2022/08/16 06:42:24;;;;;;;;;;;23.20;72.80;;;;;;4962973;28;19936;-61
2022/08/16 06:44:51;;;;;;;;;;;23.10;73.70;;;;;;4960376;28;19922;-63
2022/08/16 06:47:17;;;;;;;;;;;22.90;75.20;;;;;;4967515;28;19914;-60
2022/08/16 06:49:42;;;;;;;;;;;23.10;71.10;;;;;;4966388;28;19918;-64
2022/08/16 06:52:08;;;;;;;;;;;23.20;69.10;;;;;;4960236;28;19953;-63
2022/08/16 06:54:34;;;;;;;;;;;23.30;69.30;;;;;;4963593;28;20350;-64
2022/08/16 06:56:59;;;;;;;;;;;23.40;68.30;;;;;;4967719;28;20366;-66
2022/08/16 06:59:25;;;;;;;;;;;23.60;69.20;;;;;;4950271;28;20408;-63
2022/08/16 07:01:51;;;;;;;;;;;24.00;68.70;;;;;;4960177;28;20438;-72
2022/08/16 07:04:17;;;;;;;;;;;24.40;66.50;;;;;;4967571;28;19978;-61
2022/08/16 07:06:42;;;;;;;;;;;24.50;66.70;;;;;;4966471;28;20004;-63
2022/08/16 07:09:10;;;;;;;;;;;24.70;66.80;;;;;;4959677;28;20009;-70
2022/08/16 07:11:35;;;;;;;;;;;25.00;65.50;;;;;;4963290;28;19969;-72
2022/08/16 07:14:01;;;;;;;;;;;25.10;64.70;;;;;;4967782;28;19910;-64
2022/08/16 07:16:26;;;;;;;;;;;25.20;63.80;;;;;;4953055;28;19926;-66
2022/08/16 07:18:52;;;;;;;;;;;25.20;64.10;;;;;;4965052;28;20351;-69
2022/08/16 07:21:17;;;;;;;;;;;25.20;63.80;;;;;;4953735;28;19921;-66
2022/08/16 07:23:46;;;;;;;;;;;25.20;63.90;;;;;;4953793;28;19969;-68
2022/08/16 07:26:14;;;;;;;;;;;25.20;64.30;;;;;;4969830;28;19925;-73
2022/08/16 07:28:39;;;;;;;;;;;25.30;65.00;;;;;;4951053;28;20393;-70
2022/08/16 07:31:05;;;;;;;;;;;25.30;64.50;;;;;;4957005;28;19914;-65
2022/08/16 07:33:33;;;;;;;;;;;25.30;64.20;;;;;;4956094;28;19910;-61
2022/08/16 07:35:59;;;;;;;;;;;25.40;64.80;;;;;;4953624;28;19910;-73
2022/08/16 07:38:26;;;;;;;;;;;25.30;63.00;;;;;;4953983;28;20330;-69
2022/08/16 07:40:53;;;;;;;;;;;25.30;63.00;;;;;;4967903;28;19930;-68
2022/08/16 07:43:18;;;;;;;;;;;25.30;63.70;;;;;;4962777;28;19921;-66
2022/08/16 07:45:44;;;;;;;;;;;25.50;62.60;;;;;;4959785;28;19910;-67
2022/08/16 07:48:09;;;;;;;;;;;25.80;61.30;;;;;;4966841;28;19914;-63
2022/08/16 07:50:35;;;;;;;;;;;25.90;60.30;;;;;;4966441;28;19910;-66
2022/08/16 07:53:01;;;;;;;;;;;26.10;59.90;;;;;;4959831;28;19953;-62
2022/08/16 07:55:26;;;;;;;;;;;26.20;59.20;;;;;;4963438;28;20327;-66
2022/08/16 07:57:52;;;;;;;;;;;26.20;59.50;;;;;;4964883;28;19973;-60
2022/08/16 08:00:19;;;;;;;;;;;26.40;59.00;;;;;;4935117;29;20421;-62
2022/08/16 08:02:45;;;;;;;;;;;26.60;59.00;;;;;;4954897;28;19911;-64
2022/08/16 08:05:10;;;;;;;;;;;26.90;58.50;;;;;;4973387;28;19929;-65
2022/08/16 08:07:36;;;;;;;;;;;27.10;58.40;;;;;;4960381;28;20341;-66
2022/08/16 08:10:02;;;;;;;;;;;27.40;58.30;;;;;;4958920;28;19930;-64
2022/08/16 08:12:29;;;;;;;;;;;27.60;57.20;;;;;;4962505;28;20001;-67
2022/08/16 08:14:54;;;;;;;;;;;27.80;56.00;;;;;;4955875;28;19914;-66
2022/08/16 08:17:21;;;;;;;;;;;27.80;55.10;;;;;;4958059;28;19922;-65
2022/08/16 08:19:47;;;;;;;;;;;27.80;54.70;;;;;;4955089;28;19918;-65
2022/08/16 08:22:13;;;;;;;;;;;27.80;55.30;;;;;;4981412;28;19929;-67
2022/08/16 08:24:39;;;;;;;;;;;27.90;55.20;;;;;;4969153;28;20001;-68
2022/08/16 08:27:07;;;;;;;;;;;28.00;54.80;;;;;;4971120;28;19921;-65
2022/08/16 08:29:33;;;;;;;;;;;28.10;52.80;;;;;;4956833;28;19925;-66
2022/08/16 08:31:59;;;;;;;;;;;28.10;51.40;;;;;;4957024;28;19973;-65
2022/08/16 08:34:25;;;;;;;;;;;28.20;51.90;;;;;;4970357;28;19961;-63
2022/08/16 08:36:51;;;;;;;;;;;28.20;51.80;;;;;;4958154;28;19915;-64
2022/08/16 08:39:16;;;;;;;;;;;28.20;51.60;;;;;;4970028;28;20009;-65
2022/08/16 08:41:42;;;;;;;;;;;28.20;52.50;;;;;;4963024;28;19918;-64
2022/08/16 08:44:08;;;;;;;;;;;28.10;53.40;;;;;;4965376;28;19925;-67
2022/08/16 08:46:34;;;;;;;;;;;28.10;55.50;;;;;;4970387;28;19916;-69
2022/08/16 08:48:59;;;;;;;;;;;28.10;55.60;;;;;;4965865;28;19914;-68
2022/08/16 08:51:25;;;;;;;;;;;28.10;54.60;;;;;;4962528;28;20389;-68
2022/08/16 08:53:51;;;;;;;;;;;28.10;55.60;;;;;;4969257;28;19911;-67
2022/08/16 08:56:17;;;;;;;;;;;28.10;55.90;;;;;;4969333;28;19937;-69
2022/08/16 08:58:42;;;;;;;;;;;28.20;56.00;;;;;;4952877;28;19918;-69
2022/08/16 09:01:08;;;;;;;;;;;28.20;56.20;;;;;;4965243;28;19914;-68
2022/08/16 09:03:34;;;;;;;;;;;28.20;56.00;;;;;;4970191;28;19958;-67
2022/08/16 09:06:00;;;;;;;;;;;28.20;55.10;;;;;;4965283;28;20352;-65
2022/08/16 09:08:27;;;;;;;;;;;28.20;55.90;;;;;;4962201;28;20323;-65
2022/08/16 09:10:54;;;;;;;;;;;28.20;55.90;;;;;;4968744;28;19987;-65
2022/08/16 09:13:20;;;;;;;;;;;28.20;55.90;;;;;;4969716;28;19910;-64
2022/08/16 09:15:48;;;;;;;;;;;28.10;56.20;;;;;;4970485;28;20290;-67
2022/08/16 09:18:16;;;;;;;;;;;28.00;56.50;;;;;;4961737;28;19910;-69
2022/08/16 09:20:42;;;;;;;;;;;28.00;56.60;;;;;;4964499;28;19910;-69
2022/08/16 09:23:08;;;;;;;;;;;28.00;56.80;;;;;;4969800;28;19917;-67
2022/08/16 09:25:33;;;;;;;;;;;28.00;57.50;;;;;;4965551;28;19922;-66
2022/08/16 09:27:59;;;;;;;;;;;27.90;57.40;;;;;;4958237;28;19964;-69
2022/08/16 09:30:25;;;;;;;;;;;27.80;57.50;;;;;;4968141;28;19910;-68
2022/08/16 09:32:53;;;;;;;;;;;27.80;57.80;;;;;;4968862;28;19910;-66
2022/08/16 09:35:20;;;;;;;;;;;27.80;58.30;;;;;;4961835;28;19914;-64
2022/08/16 09:37:46;;;;;;;;;;;27.80;58.50;;;;;;4963523;28;19915;-63
2022/08/16 09:40:11;;;;;;;;;;;27.80;57.90;;;;;;4969530;28;20333;-63
2022/08/16 09:42:37;;;;;;;;;;;27.80;58.80;;;;;;4965687;28;20005;-67
2022/08/16 09:45:05;;;;;;;;;;;27.80;58.50;;;;;;4961626;28;20378;-65
2022/08/16 09:47:31;;;;;;;;;;;27.80;58.60;;;;;;4967150;28;19934;-64
2022/08/16 09:49:57;;;;;;;;;;;27.70;57.90;;;;;;4956068;28;19911;-65
2022/08/16 09:52:23;;;;;;;;;;;27.60;57.30;;;;;;4968575;28;19914;-65
2022/08/16 09:54:48;;;;;;;;;;;27.60;57.50;;;;;;4967744;28;20081;-64
2022/08/16 09:57:14;;;;;;;;;;;27.60;57.60;;;;;;4961275;28;19921;-64
2022/08/16 09:59:39;;;;;;;;;;;27.50;57.50;;;;;;4955508;28;19950;-62
2022/08/16 10:02:05;;;;;;;;;;;27.50;57.70;;;;;;4969575;28;19911;-64
2022/08/16 10:04:31;;;;;;;;;;;27.50;57.30;;;;;;4964252;28;19922;-64
2022/08/16 10:06:57;;;;;;;;;;;27.40;57.50;;;;;;4961948;28;19918;-65
2022/08/16 10:09:23;;;;;;;;;;;27.30;57.80;;;;;;4968313;28;19932;-63
2022/08/16 10:14:33;;;;;;;;;;;27.30;57.40;;;;;;4962222;28;19926;-65
2022/08/16 10:17:02;;;;;;;;;;;27.40;56.90;;;;;;4962388;28;20298;-63
2022/08/16 10:19:28;;;;;;;;;;;27.30;57.40;;;;;;4968861;28;20016;-66
2022/08/16 10:21:55;;;;;;;;;;;27.40;56.90;;;;;;4962498;28;20381;-63
2022/08/16 10:24:21;;;;;;;;;;;27.40;58.00;;;;;;4961164;28;19922;-64
2022/08/16 10:26:46;;;;;;;;;;;27.40;57.30;;;;;;4968669;28;20259;-63
2022/08/16 10:29:12;;;;;;;;;;;27.30;56.80;;;;;;4958093;28;20564;-64
2022/08/16 10:31:38;;;;;;;;;;;27.30;56.60;;;;;;4960566;28;19942;-63
2022/08/16 10:34:04;;;;;;;;;;;27.30;57.00;;;;;;4964792;28;19918;-63
2022/08/16 10:36:30;;;;;;;;;;;27.30;56.80;;;;;;4968312;28;19910;-65
2022/08/16 10:38:55;;;;;;;;;;;27.30;56.40;;;;;;4954803;28;20005;-65
2022/08/16 10:41:22;;;;;;;;;;;27.30;56.80;;;;;;4967997;28;19914;-64
2022/08/16 10:43:48;;;;;;;;;;;27.40;56.70;;;;;;4959654;28;19941;-64
2022/08/16 10:46:14;;;;;;;;;;;27.40;56.50;;;;;;4962328;28;19914;-64
2022/08/16 10:48:41;;;;;;;;;;;27.40;56.60;;;;;;4968160;28;19960;-65
2022/08/16 10:51:07;;;;;;;;;;;27.40;56.00;;;;;;4964380;28;19910;-65
2022/08/16 10:53:32;;;;;;;;;;;27.40;56.30;;;;;;4960367;28;20010;-64
2022/08/16 10:55:58;;;;;;;;;;;27.40;56.60;;;;;;4966439;28;19910;-64
2022/08/16 10:58:24;;;;;;;;;;;27.40;56.10;;;;;;4952907;28;19922;-63
2022/08/16 11:00:50;;;;;;;;;;;27.40;55.70;;;;;;4974329;28;19925;-65
2022/08/16 11:03:16;;;;;;;;;;;27.40;56.10;;;;;;4962731;28;19918;-65
2022/08/16 11:05:42;;;;;;;;;;;27.40;55.40;;;;;;4968358;28;20006;-63
2022/08/16 11:08:10;;;;;;;;;;;27.40;55.40;;;;;;4968964;28;19910;-63
2022/08/16 11:10:39;;;;;;;;;;;27.40;55.90;;;;;;4990087;28;19926;-65
2022/08/16 11:13:05;;;;;;;;;;;27.40;55.70;;;;;;4981787;28;19949;-64
2022/08/16 11:15:31;;;;;;;;;;;27.40;55.30;;;;;;4954268;28;19914;-65
2022/08/16 11:17:57;;;;;;;;;;;27.30;55.30;;;;;;4985513;28;20041;-64
2022/08/16 11:20:23;;;;;;;;;;;27.30;55.10;;;;;;4970096;28;19914;-63
2022/08/16 11:22:48;;;;;;;;;;;27.30;55.30;;;;;;4958091;28;20401;-63
2022/08/16 11:25:20;;;;;;;;;;;27.30;55.80;;;;;;4953408;28;19922;-64
2022/08/16 11:27:46;;;;;;;;;;;27.30;56.90;;;;;;4969965;28;19921;-66
2022/08/16 11:30:13;;;;;;;;;;;27.30;56.20;;;;;;4962194;28;19918;-63
2022/08/16 11:32:39;;;;;;;;;;;27.30;56.50;;;;;;4955674;28;20277;-64
2022/08/16 11:35:07;;;;;;;;;;;27.40;55.80;;;;;;4953313;28;19911;-62
2022/08/16 11:37:33;;;;;;;;;;;27.30;55.70;;;;;;4967479;28;19910;-64
2022/08/16 11:39:59;;;;;;;;;;;27.40;56.80;;;;;;4961934;28;19910;-62
2022/08/16 11:42:25;;;;;;;;;;;27.40;57.40;;;;;;4959758;28;20456;-64
2022/08/16 11:44:50;;;;;;;;;;;27.40;57.70;;;;;;4953642;28;19941;-62
2022/08/16 11:47:16;;;;;;;;;;;27.40;56.20;;;;;;4959527;28;19956;-62
2022/08/16 11:49:42;;;;;;;;;;;27.40;56.00;;;;;;4961634;28;19969;-61
2022/08/16 11:52:08;;;;;;;;;;;27.40;55.80;;;;;;4950302;29;19914;-61
2022/08/16 11:54:34;;;;;;;;;;;27.30;57.70;;;;;;4955677;28;19911;-73
2022/08/16 11:56:59;;;;;;;;;;;27.30;57.50;;;;;;4963717;28;19921;-68
2022/08/16 11:59:27;;;;;;;;;;;27.30;56.70;;;;;;4963726;28;19914;-67
2022/08/16 12:01:54;;;;;;;;;;;27.30;57.60;;;;;;4956951;28;19914;-66
2022/08/16 12:04:20;;;;;;;;;;;27.30;57.30;;;;;;4970129;28;19919;-63
2022/08/16 12:06:46;;;;;;;;;;;27.40;59.30;;;;;;4957310;29;19917;-65
2022/08/16 12:09:12;;;;;;;;;;;27.40;56.30;;;;;;4960409;28;20282;-64
2022/08/16 12:11:38;;;;;;;;;;;27.30;57.00;;;;;;4965998;28;19911;-64
2022/08/16 12:14:04;;;;;;;;;;;27.30;57.70;;;;;;4956229;28;20429;-61
2022/08/16 12:16:30;;;;;;;;;;;27.40;56.80;;;;;;4956758;28;20282;-64
2022/08/16 12:18:56;;;;;;;;;;;27.40;57.70;;;;;;4970124;28;19910;-64
2022/08/16 12:21:22;;;;;;;;;;;27.30;57.30;;;;;;4975250;28;19918;-65
2022/08/16 12:23:48;;;;;;;;;;;27.30;57.50;;;;;;4962362;28;19924;-62
2022/08/16 12:26:13;;;;;;;;;;;27.40;57.50;;;;;;4965023;28;19984;-63
2022/08/16 12:28:39;;;;;;;;;;;27.40;57.30;;;;;;4948659;28;20001;-64
2022/08/16 12:31:05;;;;;;;;;;;27.30;58.10;;;;;;4957201;28;19921;-64
2022/08/16 12:33:31;;;;;;;;;;;27.30;57.60;;;;;;4968093;28;19916;-68
2022/08/16 12:35:56;;;;;;;;;;;27.30;57.70;;;;;;4956267;28;20013;-64
2022/08/16 12:38:22;;;;;;;;;;;27.30;57.90;;;;;;4969439;28;20005;-65
2022/08/16 12:40:49;;;;;;;;;;;27.30;58.10;;;;;;4968893;28;19966;-62
2022/08/16 12:43:15;;;;;;;;;;;27.20;58.30;;;;;;4962700;28;19914;-67
2022/08/16 12:45:43;;;;;;;;;;;27.20;58.50;;;;;;4975319;28;19976;-66
2022/08/16 12:50:53;;;;;;;;;;;27.20;58.60;;;;;;4973332;28;19952;-69
2022/08/16 12:53:19;;;;;;;;;;;27.20;58.80;;;;;;4958149;28;19957;-69
2022/08/16 12:55:45;;;;;;;;;;;27.20;58.90;;;;;;4955439;28;19910;-70
2022/08/16 12:58:12;;;;;;;;;;;27.20;59.30;;;;;;4943105;28;19911;-70
2022/08/16 13:00:39;;;;;;;;;;;27.30;59.00;;;;;;4955692;28;19942;-66
2022/08/16 13:03:04;;;;;;;;;;;27.40;60.70;;;;;;4972741;28;19965;-67
2022/08/16 13:05:31;;;;;;;;;;;27.40;58.10;;;;;;4961874;28;19922;-69
2022/08/16 13:07:57;;;;;;;;;;;27.40;57.80;;;;;;4965425;28;19918;-66
2022/08/16 13:10:25;;;;;;;;;;;27.50;59.20;;;;;;4969724;28;19981;-67
2022/08/16 13:12:52;;;;;;;;;;;27.50;57.60;;;;;;4962944;28;19954;-66
2022/08/16 13:15:22;;;;;;;;;;;27.50;57.00;;;;;;4955599;28;19925;-65
2022/08/16 13:17:48;;;;;;;;;;;27.50;56.40;;;;;;4954921;28;19915;-66
2022/08/16 13:20:15;;;;;;;;;;;27.40;56.90;;;;;;4955353;28;19922;-72
2022/08/16 13:22:52;;;;;;;;;;;27.50;56.70;;;;;;4957900;28;19985;-68
2022/08/16 13:25:20;;;;;;;;;;;27.40;56.70;;;;;;4955092;28;20054;-75
2022/08/16 13:27:45;;;;;;;;;;;27.40;57.00;;;;;;4954918;28;19970;-69
2022/08/16 13:30:11;;;;;;;;;;;27.40;57.10;;;;;;4946437;28;19933;-70
2022/08/16 13:32:37;;;;;;;;;;;27.50;57.30;;;;;;4954915;28;19918;-69
2022/08/16 13:35:03;;;;;;;;;;;27.50;56.90;;;;;;4954790;28;19915;-69
2022/08/16 13:37:29;;;;;;;;;;;27.50;57.10;;;;;;4958094;28;19956;-67
2022/08/16 13:39:55;;;;;;;;;;;27.50;58.00;;;;;;4954644;28;20358;-69
2022/08/16 13:42:20;;;;;;;;;;;27.60;58.20;;;;;;4953721;28;19922;-70
2022/08/16 13:44:47;;;;;;;;;;;27.60;58.00;;;;;;4957576;28;20318;-68
2022/08/16 13:47:12;;;;;;;;;;;27.50;58.20;;;;;;4954111;28;19921;-69
2022/08/16 13:49:40;;;;;;;;;;;27.50;58.00;;;;;;4953951;28;19915;-68
2022/08/16 13:52:06;;;;;;;;;;;27.60;58.60;;;;;;4958959;28;19918;-68
2022/08/16 13:54:31;;;;;;;;;;;27.60;57.30;;;;;;4940316;28;19921;-71
2022/08/16 13:56:57;;;;;;;;;;;27.50;57.40;;;;;;4957094;28;19914;-68
2022/08/16 13:59:22;;;;;;;;;;;27.40;58.00;;;;;;4937154;28;20379;-69
2022/08/16 14:01:50;;;;;;;;;;;27.50;57.50;;;;;;4968830;28;19910;-69
2022/08/16 14:04:16;;;;;;;;;;;27.50;57.50;;;;;;4966027;28;19918;-70
2022/08/16 14:06:42;;;;;;;;;;;27.50;58.00;;;;;;4958009;28;20282;-65
2022/08/16 14:09:08;;;;;;;;;;;27.50;57.50;;;;;;4953986;28;20354;-70
2022/08/16 14:11:33;;;;;;;;;;;27.50;57.40;;;;;;4954233;28;20370;-67
2022/08/16 14:13:59;;;;;;;;;;;27.50;57.80;;;;;;4954237;28;20010;-65